sensor_id;sensor_type;location;lat;lon;timestamp;temperature;humidity
75738;DHT22;64356;45.638;13.764;2022-11-20T00:00:24;20.50;67.90
75738;DHT22;64356;45.638;13.764;2022-11-20T00:02:50;20.50;67.50
75738;DHT22;64356;45.638;13.764;2022-11-20T00:05:15;20.50;66.90
75738;DHT22;64356;45.638;13.764;2022-11-20T00:07:41;20.50;66.80
75738;DHT22;64356;45.638;13.764;2022-11-20T00:10:07;20.40;67.30
75738;DHT22;64356;45.638;13.764;2022-11-20T00:12:32;20.50;65.90
75738;DHT22;64356;45.638;13.764;2022-11-20T00:14:58;20.40;65.90
75738;DHT22;64356;45.638;13.764;2022-11-20T00:17:24;20.40;66.60
75738;DHT22;64356;45.638;13.764;2022-11-20T00:19:49;20.40;65.60
75738;DHT22;64356;45.638;13.764;2022-11-20T00:22:15;20.40;66.80
75738;DHT22;64356;45.638;13.764;2022-11-20T00:24:41;20.40;66.40
75738;DHT22;64356;45.638;13.764;2022-11-20T00:27:06;20.40;64.00
75738;DHT22;64356;45.638;13.764;2022-11-20T00:29:32;20.40;66.70
75738;DHT22;64356;45.638;13.764;2022-11-20T00:31:57;20.40;66.90
75738;DHT22;64356;45.638;13.764;2022-11-20T00:34:23;20.30;66.60
75738;DHT22;64356;45.638;13.764;2022-11-20T00:36:48;20.30;66.60
75738;DHT22;64356;45.638;13.764;2022-11-20T00:39:14;20.30;65.50
75738;DHT22;64356;45.638;13.764;2022-11-20T00:41:40;20.30;67.50
75738;DHT22;64356;45.638;13.764;2022-11-20T00:44:05;20.30;66.80
75738;DHT22;64356;45.638;13.764;2022-11-20T00:46:31;20.30;67.50
75738;DHT22;64356;45.638;13.764;2022-11-20T00:48:57;20.30;65.40
75738;DHT22;64356;45.638;13.764;2022-11-20T00:51:24;20.30;67.20
75738;DHT22;64356;45.638;13.764;2022-11-20T00:53:50;20.30;66.10
75738;DHT22;64356;45.638;13.764;2022-11-20T00:56:18;20.30;67.40
75738;DHT22;64356;45.638;13.764;2022-11-20T00:58:46;20.30;67.20
75738;DHT22;64356;45.638;13.764;2022-11-20T01:01:17;20.20;66.40
75738;DHT22;64356;45.638;13.764;2022-11-20T01:03:47;20.30;66.60
75738;DHT22;64356;45.638;13.764;2022-11-20T01:06:22;20.30;67.20
75738;DHT22;64356;45.638;13.764;2022-11-20T01:08:49;20.30;67.20
75738;DHT22;64356;45.638;13.764;2022-11-20T01:11:20;20.30;67.80
75738;DHT22;64356;45.638;13.764;2022-11-20T01:13:46;20.30;66.80
75738;DHT22;64356;45.638;13.764;2022-11-20T01:18:42;20.20;67.40
75738;DHT22;64356;45.638;13.764;2022-11-20T01:21:10;20.20;67.00
75738;DHT22;64356;45.638;13.764;2022-11-20T01:23:39;20.20;67.00
75738;DHT22;64356;45.638;13.764;2022-11-20T01:26:16;20.20;67.50
75738;DHT22;64356;45.638;13.764;2022-11-20T01:28:42;20.20;66.70
75738;DHT22;64356;45.638;13.764;2022-11-20T01:31:16;20.20;67.10
75738;DHT22;64356;45.638;13.764;2022-11-20T01:33:44;20.20;67.30
75738;DHT22;64356;45.638;13.764;2022-11-20T01:36:11;20.20;66.40
75738;DHT22;64356;45.638;13.764;2022-11-20T01:38:37;20.20;67.60
75738;DHT22;64356;45.638;13.764;2022-11-20T01:41:03;20.20;67.20
75738;DHT22;64356;45.638;13.764;2022-11-20T01:43:29;20.20;67.50
75738;DHT22;64356;45.638;13.764;2022-11-20T01:49:00;20.20;66.90
75738;DHT22;64356;45.638;13.764;2022-11-20T01:51:29;20.20;68.30
75738;DHT22;64356;45.638;13.764;2022-11-20T01:54:00;20.20;66.40
75738;DHT22;64356;45.638;13.764;2022-11-20T01:56:27;20.20;67.40
75738;DHT22;64356;45.638;13.764;2022-11-20T01:58:58;20.20;66.80
75738;DHT22;64356;45.638;13.764;2022-11-20T02:01:24;20.20;67.20
75738;DHT22;64356;45.638;13.764;2022-11-20T02:03:50;20.20;67.40
75738;DHT22;64356;45.638;13.764;2022-11-20T02:06:23;20.20;67.20
75738;DHT22;64356;45.638;13.764;2022-11-20T02:08:51;20.20;67.40
75738;DHT22;64356;45.638;13.764;2022-11-20T02:11:16;20.20;66.80
75738;DHT22;64356;45.638;13.764;2022-11-20T02:13:42;20.20;66.90
75738;DHT22;64356;45.638;13.764;2022-11-20T02:16:21;20.20;67.60
75738;DHT22;64356;45.638;13.764;2022-11-20T02:18:49;20.20;67.60
75738;DHT22;64356;45.638;13.764;2022-11-20T02:24:17;20.20;67.60
75738;DHT22;64356;45.638;13.764;2022-11-20T02:26:53;20.20;67.70
75738;DHT22;64356;45.638;13.764;2022-11-20T02:29:37;20.20;67.20
75738;DHT22;64356;45.638;13.764;2022-11-20T02:32:05;20.20;67.10
75738;DHT22;64356;45.638;13.764;2022-11-20T02:34:31;20.20;67.70
75738;DHT22;64356;45.638;13.764;2022-11-20T02:36:57;20.20;67.30
75738;DHT22;64356;45.638;13.764;2022-11-20T02:39:25;20.20;67.20
75738;DHT22;64356;45.638;13.764;2022-11-20T02:41:53;20.20;67.30
75738;DHT22;64356;45.638;13.764;2022-11-20T02:44:20;20.20;67.50
75738;DHT22;64356;45.638;13.764;2022-11-20T02:46:45;20.20;67.20
75738;DHT22;64356;45.638;13.764;2022-11-20T02:49:12;20.20;66.70
75738;DHT22;64356;45.638;13.764;2022-11-20T02:51:37;20.20;67.00
75738;DHT22;64356;45.638;13.764;2022-11-20T02:54:03;20.10;66.90
75738;DHT22;64356;45.638;13.764;2022-11-20T02:56:29;20.10;67.30
75738;DHT22;64356;45.638;13.764;2022-11-20T02:58:55;20.10;67.40
75738;DHT22;64356;45.638;13.764;2022-11-20T03:01:21;20.20;67.00
75738;DHT22;64356;45.638;13.764;2022-11-20T03:03:47;20.10;66.90
75738;DHT22;64356;45.638;13.764;2022-11-20T03:06:14;20.10;66.70
75738;DHT22;64356;45.638;13.764;2022-11-20T03:08:41;20.10;67.10
75738;DHT22;64356;45.638;13.764;2022-11-20T03:11:07;20.10;67.30
75738;DHT22;64356;45.638;13.764;2022-11-20T03:13:34;20.10;66.70
75738;DHT22;64356;45.638;13.764;2022-11-20T03:16:11;20.10;67.20
75738;DHT22;64356;45.638;13.764;2022-11-20T03:18:38;20.10;67.20
75738;DHT22;64356;45.638;13.764;2022-11-20T03:21:04;20.10;66.40
75738;DHT22;64356;45.638;13.764;2022-11-20T03:23:31;20.10;67.10
75738;DHT22;64356;45.638;13.764;2022-11-20T03:26:14;20.10;66.70
75738;DHT22;64356;45.638;13.764;2022-11-20T03:28:42;20.10;66.70
75738;DHT22;64356;45.638;13.764;2022-11-20T03:31:13;20.10;66.50
75738;DHT22;64356;45.638;13.764;2022-11-20T03:33:39;20.10;67.10
75738;DHT22;64356;45.638;13.764;2022-11-20T03:36:08;20.10;66.90
75738;DHT22;64356;45.638;13.764;2022-11-20T03:38:34;20.10;67.00
75738;DHT22;64356;45.638;13.764;2022-11-20T03:41:05;20.10;66.60
75738;DHT22;64356;45.638;13.764;2022-11-20T03:43:32;20.10;66.40
75738;DHT22;64356;45.638;13.764;2022-11-20T03:45:58;20.10;66.70
75738;DHT22;64356;45.638;13.764;2022-11-20T03:48:24;20.10;66.90
75738;DHT22;64356;45.638;13.764;2022-11-20T03:50:51;20.10;67.00
75738;DHT22;64356;45.638;13.764;2022-11-20T03:53:17;20.10;66.10
75738;DHT22;64356;45.638;13.764;2022-11-20T03:55:43;20.10;67.20
75738;DHT22;64356;45.638;13.764;2022-11-20T03:58:09;20.10;67.50
75738;DHT22;64356;45.638;13.764;2022-11-20T04:00:35;20.10;66.80
75738;DHT22;64356;45.638;13.764;2022-11-20T04:03:02;20.10;67.20
75738;DHT22;64356;45.638;13.764;2022-11-20T04:05:27;20.10;67.00
75738;DHT22;64356;45.638;13.764;2022-11-20T04:07:53;20.10;67.40
75738;DHT22;64356;45.638;13.764;2022-11-20T04:10:19;20.10;67.10
75738;DHT22;64356;45.638;13.764;2022-11-20T04:12:44;20.10;67.10
75738;DHT22;64356;45.638;13.764;2022-11-20T04:15:10;20.10;67.10
75738;DHT22;64356;45.638;13.764;2022-11-20T04:17:36;20.10;67.20
75738;DHT22;64356;45.638;13.764;2022-11-20T04:20:02;20.10;66.80
75738;DHT22;64356;45.638;13.764;2022-11-20T04:22:28;20.10;67.10
75738;DHT22;64356;45.638;13.764;2022-11-20T04:24:54;20.10;66.80
75738;DHT22;64356;45.638;13.764;2022-11-20T04:27:20;20.10;67.10
75738;DHT22;64356;45.638;13.764;2022-11-20T04:29:46;20.10;67.00
75738;DHT22;64356;45.638;13.764;2022-11-20T04:32:11;20.10;66.80
75738;DHT22;64356;45.638;13.764;2022-11-20T04:34:37;20.10;66.60
75738;DHT22;64356;45.638;13.764;2022-11-20T04:37:03;20.00;66.50
75738;DHT22;64356;45.638;13.764;2022-11-20T04:39:28;20.10;67.10
75738;DHT22;64356;45.638;13.764;2022-11-20T04:41:54;20.00;66.50
75738;DHT22;64356;45.638;13.764;2022-11-20T04:44:39;20.00;67.00
75738;DHT22;64356;45.638;13.764;2022-11-20T04:47:05;20.00;66.70
75738;DHT22;64356;45.638;13.764;2022-11-20T04:49:31;20.00;66.60
75738;DHT22;64356;45.638;13.764;2022-11-20T04:51:58;20.00;67.30
75738;DHT22;64356;45.638;13.764;2022-11-20T04:54:23;20.00;66.90
75738;DHT22;64356;45.638;13.764;2022-11-20T04:56:49;20.00;66.80
75738;DHT22;64356;45.638;13.764;2022-11-20T04:59:15;20.00;67.10
75738;DHT22;64356;45.638;13.764;2022-11-20T05:01:41;20.00;66.90
75738;DHT22;64356;45.638;13.764;2022-11-20T05:04:07;20.00;66.60
75738;DHT22;64356;45.638;13.764;2022-11-20T05:06:33;20.00;66.80
75738;DHT22;64356;45.638;13.764;2022-11-20T05:08:58;20.00;66.70
75738;DHT22;64356;45.638;13.764;2022-11-20T05:11:25;20.00;66.80
75738;DHT22;64356;45.638;13.764;2022-11-20T05:13:51;20.00;66.90
75738;DHT22;64356;45.638;13.764;2022-11-20T05:16:22;20.00;66.70
75738;DHT22;64356;45.638;13.764;2022-11-20T05:18:48;19.90;66.20
75738;DHT22;64356;45.638;13.764;2022-11-20T05:21:15;20.00;66.60
75738;DHT22;64356;45.638;13.764;2022-11-20T05:23:42;20.00;66.10
75738;DHT22;64356;45.638;13.764;2022-11-20T05:26:13;20.00;66.50
75738;DHT22;64356;45.638;13.764;2022-11-20T05:28:39;20.00;66.40
75738;DHT22;64356;45.638;13.764;2022-11-20T05:31:09;20.00;66.30
75738;DHT22;64356;45.638;13.764;2022-11-20T05:33:36;20.00;67.30
75738;DHT22;64356;45.638;13.764;2022-11-20T05:36:03;20.00;66.70
75738;DHT22;64356;45.638;13.764;2022-11-20T05:38:29;20.00;66.70
75738;DHT22;64356;45.638;13.764;2022-11-20T05:41:02;20.00;66.80
75738;DHT22;64356;45.638;13.764;2022-11-20T05:43:27;20.00;66.10
75738;DHT22;64356;45.638;13.764;2022-11-20T05:45:53;19.90;66.60
75738;DHT22;64356;45.638;13.764;2022-11-20T05:48:19;20.00;66.40
75738;DHT22;64356;45.638;13.764;2022-11-20T05:50:45;20.00;66.20
75738;DHT22;64356;45.638;13.764;2022-11-20T05:53:11;20.00;66.10
75738;DHT22;64356;45.638;13.764;2022-11-20T05:55:36;20.00;66.30
75738;DHT22;64356;45.638;13.764;2022-11-20T05:58:02;20.00;66.50
75738;DHT22;64356;45.638;13.764;2022-11-20T06:00:27;20.00;66.30
75738;DHT22;64356;45.638;13.764;2022-11-20T06:02:53;20.00;66.30
75738;DHT22;64356;45.638;13.764;2022-11-20T06:05:19;20.00;65.90
75738;DHT22;64356;45.638;13.764;2022-11-20T06:07:44;19.90;66.20
75738;DHT22;64356;45.638;13.764;2022-11-20T06:10:10;19.90;66.80
75738;DHT22;64356;45.638;13.764;2022-11-20T06:12:36;19.90;66.50
75738;DHT22;64356;45.638;13.764;2022-11-20T06:15:02;19.90;66.60
75738;DHT22;64356;45.638;13.764;2022-11-20T06:17:28;19.90;66.50
75738;DHT22;64356;45.638;13.764;2022-11-20T06:19:53;19.90;66.40
75738;DHT22;64356;45.638;13.764;2022-11-20T06:22:19;20.00;66.00
75738;DHT22;64356;45.638;13.764;2022-11-20T06:24:45;19.90;66.20
75738;DHT22;64356;45.638;13.764;2022-11-20T06:27:10;19.90;66.40
75738;DHT22;64356;45.638;13.764;2022-11-20T06:29:36;19.90;66.30
75738;DHT22;64356;45.638;13.764;2022-11-20T06:32:01;19.90;65.80
75738;DHT22;64356;45.638;13.764;2022-11-20T06:34:27;19.90;66.30
75738;DHT22;64356;45.638;13.764;2022-11-20T06:36:53;19.90;65.90
75738;DHT22;64356;45.638;13.764;2022-11-20T06:39:18;19.90;65.80
75738;DHT22;64356;45.638;13.764;2022-11-20T06:41:44;19.90;65.70
75738;DHT22;64356;45.638;13.764;2022-11-20T06:44:09;19.90;65.90
75738;DHT22;64356;45.638;13.764;2022-11-20T06:46:35;19.90;65.30
75738;DHT22;64356;45.638;13.764;2022-11-20T06:49:01;19.90;66.00
75738;DHT22;64356;45.638;13.764;2022-11-20T06:51:26;19.90;65.60
75738;DHT22;64356;45.638;13.764;2022-11-20T06:53:53;19.90;65.80
75738;DHT22;64356;45.638;13.764;2022-11-20T06:56:18;19.90;65.80
75738;DHT22;64356;45.638;13.764;2022-11-20T06:58:44;19.90;65.70
75738;DHT22;64356;45.638;13.764;2022-11-20T07:01:12;19.90;65.70
75738;DHT22;64356;45.638;13.764;2022-11-20T07:03:38;19.90;65.90
75738;DHT22;64356;45.638;13.764;2022-11-20T07:06:05;19.90;65.70
75738;DHT22;64356;45.638;13.764;2022-11-20T07:08:31;19.90;65.70
75738;DHT22;64356;45.638;13.764;2022-11-20T07:11:03;19.80;64.80
75738;DHT22;64356;45.638;13.764;2022-11-20T07:13:30;19.90;65.80
75738;DHT22;64356;45.638;13.764;2022-11-20T07:16:03;19.80;65.90
75738;DHT22;64356;45.638;13.764;2022-11-20T07:18:29;19.90;65.80
75738;DHT22;64356;45.638;13.764;2022-11-20T07:20:55;19.80;65.40
75738;DHT22;64356;45.638;13.764;2022-11-20T07:23:20;19.90;65.80
75738;DHT22;64356;45.638;13.764;2022-11-20T07:25:46;19.80;65.70
75738;DHT22;64356;45.638;13.764;2022-11-20T07:28:12;19.80;65.20
75738;DHT22;64356;45.638;13.764;2022-11-20T07:30:37;19.90;65.60
75738;DHT22;64356;45.638;13.764;2022-11-20T07:33:03;19.90;65.30
75738;DHT22;64356;45.638;13.764;2022-11-20T07:35:29;19.80;65.50
75738;DHT22;64356;45.638;13.764;2022-11-20T07:37:54;19.90;65.40
75738;DHT22;64356;45.638;13.764;2022-11-20T07:40:20;19.80;65.10
75738;DHT22;64356;45.638;13.764;2022-11-20T07:42:53;19.90;65.30
75738;DHT22;64356;45.638;13.764;2022-11-20T07:45:20;19.80;65.20
75738;DHT22;64356;45.638;13.764;2022-11-20T07:47:46;19.90;64.90
75738;DHT22;64356;45.638;13.764;2022-11-20T07:50:12;19.80;66.40
75738;DHT22;64356;45.638;13.764;2022-11-20T07:52:38;19.80;66.90
75738;DHT22;64356;45.638;13.764;2022-11-20T07:55:04;19.80;67.10
75738;DHT22;64356;45.638;13.764;2022-11-20T07:57:30;19.80;67.80
75738;DHT22;64356;45.638;13.764;2022-11-20T07:59:56;19.80;67.40
75738;DHT22;64356;45.638;13.764;2022-11-20T08:02:22;19.80;67.40
75738;DHT22;64356;45.638;13.764;2022-11-20T08:04:47;19.90;67.80
75738;DHT22;64356;45.638;13.764;2022-11-20T08:07:13;19.90;66.90
75738;DHT22;64356;45.638;13.764;2022-11-20T08:09:38;19.80;67.20
75738;DHT22;64356;45.638;13.764;2022-11-20T08:12:04;19.90;67.40
75738;DHT22;64356;45.638;13.764;2022-11-20T08:14:49;19.80;66.80
75738;DHT22;64356;45.638;13.764;2022-11-20T08:17:14;19.80;67.00
75738;DHT22;64356;45.638;13.764;2022-11-20T08:19:40;19.80;66.30
75738;DHT22;64356;45.638;13.764;2022-11-20T08:22:05;19.80;66.50
75738;DHT22;64356;45.638;13.764;2022-11-20T08:24:31;19.80;66.60
75738;DHT22;64356;45.638;13.764;2022-11-20T08:26:58;19.80;66.50
75738;DHT22;64356;45.638;13.764;2022-11-20T08:29:25;19.80;66.70
75738;DHT22;64356;45.638;13.764;2022-11-20T08:31:51;19.80;66.90
75738;DHT22;64356;45.638;13.764;2022-11-20T08:34:17;19.80;66.40
75738;DHT22;64356;45.638;13.764;2022-11-20T08:36:42;19.80;66.20
75738;DHT22;64356;45.638;13.764;2022-11-20T08:39:13;19.80;66.20
75738;DHT22;64356;45.638;13.764;2022-11-20T08:41:39;19.80;66.20
75738;DHT22;64356;45.638;13.764;2022-11-20T08:44:06;19.80;65.90
75738;DHT22;64356;45.638;13.764;2022-11-20T08:46:37;19.80;66.10
75738;DHT22;64356;45.638;13.764;2022-11-20T08:49:04;19.80;65.90
75738;DHT22;64356;45.638;13.764;2022-11-20T08:51:30;19.80;66.00
75738;DHT22;64356;45.638;13.764;2022-11-20T08:53:56;19.80;65.60
75738;DHT22;64356;45.638;13.764;2022-11-20T08:56:21;19.90;65.80
75738;DHT22;64356;45.638;13.764;2022-11-20T08:58:47;19.90;65.50
75738;DHT22;64356;45.638;13.764;2022-11-20T09:01:13;19.90;65.70
75738;DHT22;64356;45.638;13.764;2022-11-20T09:03:38;19.90;65.50
75738;DHT22;64356;45.638;13.764;2022-11-20T09:06:06;19.90;65.30
75738;DHT22;64356;45.638;13.764;2022-11-20T09:08:33;19.90;65.30
75738;DHT22;64356;45.638;13.764;2022-11-20T09:10:59;19.90;64.50
75738;DHT22;64356;45.638;13.764;2022-11-20T09:13:27;19.90;64.90
75738;DHT22;64356;45.638;13.764;2022-11-20T09:16:06;19.90;64.90
75738;DHT22;64356;45.638;13.764;2022-11-20T09:18:34;19.90;64.50
75738;DHT22;64356;45.638;13.764;2022-11-20T09:21:03;19.90;64.60
75738;DHT22;64356;45.638;13.764;2022-11-20T09:23:34;19.90;65.20
75738;DHT22;64356;45.638;13.764;2022-11-20T09:26:11;19.90;64.80
75738;DHT22;64356;45.638;13.764;2022-11-20T09:28:37;19.90;64.30
75738;DHT22;64356;45.638;13.764;2022-11-20T09:31:07;19.90;64.60
75738;DHT22;64356;45.638;13.764;2022-11-20T09:33:34;19.90;64.50
75738;DHT22;64356;45.638;13.764;2022-11-20T09:36:00;19.90;63.60
75738;DHT22;64356;45.638;13.764;2022-11-20T09:38:25;19.90;64.10
75738;DHT22;64356;45.638;13.764;2022-11-20T09:41:05;19.90;64.60
75738;DHT22;64356;45.638;13.764;2022-11-20T09:43:54;19.90;65.30
75738;DHT22;64356;45.638;13.764;2022-11-20T09:52:05;19.90;65.40
75738;DHT22;64356;45.638;13.764;2022-11-20T09:54:38;20.00;65.20
75738;DHT22;64356;45.638;13.764;2022-11-20T09:57:21;20.00;65.20
75738;DHT22;64356;45.638;13.764;2022-11-20T09:59:56;20.00;64.70
75738;DHT22;64356;45.638;13.764;2022-11-20T10:02:36;20.00;64.70
75738;DHT22;64356;45.638;13.764;2022-11-20T10:08:14;20.00;64.70
75738;DHT22;64356;45.638;13.764;2022-11-20T10:10:46;20.00;64.40
75738;DHT22;64356;45.638;13.764;2022-11-20T10:32:39;19.90;63.60
75738;DHT22;64356;45.638;13.764;2022-11-20T10:35:31;19.90;63.70
75738;DHT22;64356;45.638;13.764;2022-11-20T10:38:00;19.90;63.70
75738;DHT22;64356;45.638;13.764;2022-11-20T10:40:41;19.90;63.50
75738;DHT22;64356;45.638;13.764;2022-11-20T10:43:24;19.90;63.40
75738;DHT22;64356;45.638;13.764;2022-11-20T10:46:06;19.90;63.30
75738;DHT22;64356;45.638;13.764;2022-11-20T10:48:36;19.90;63.40
75738;DHT22;64356;45.638;13.764;2022-11-20T10:51:36;19.90;63.30
75738;DHT22;64356;45.638;13.764;2022-11-20T10:54:24;19.90;62.50
75738;DHT22;64356;45.638;13.764;2022-11-20T10:56:58;19.80;62.80
75738;DHT22;64356;45.638;13.764;2022-11-20T10:59:47;19.70;55.20
75738;DHT22;64356;45.638;13.764;2022-11-20T11:02:22;18.90;46.60
75738;DHT22;64356;45.638;13.764;2022-11-20T11:04:57;18.10;50.00
75738;DHT22;64356;45.638;13.764;2022-11-20T11:07:36;17.50;50.80
75738;DHT22;64356;45.638;13.764;2022-11-20T11:12:44;17.70;55.50
75738;DHT22;64356;45.638;13.764;2022-11-20T11:15:14;17.80;54.70
75738;DHT22;64356;45.638;13.764;2022-11-20T11:17:46;17.80;55.00
75738;DHT22;64356;45.638;13.764;2022-11-20T11:20:18;17.80;51.70
75738;DHT22;64356;45.638;13.764;2022-11-20T11:22:47;17.70;52.70
75738;DHT22;64356;45.638;13.764;2022-11-20T11:25:29;17.50;50.40
75738;DHT22;64356;45.638;13.764;2022-11-20T11:27:58;17.40;57.20
75738;DHT22;64356;45.638;13.764;2022-11-20T11:30:26;17.70;57.00
75738;DHT22;64356;45.638;13.764;2022-11-20T11:33:06;17.80;55.30
75738;DHT22;64356;45.638;13.764;2022-11-20T11:35:33;18.00;56.40
75738;DHT22;64356;45.638;13.764;2022-11-20T11:38:06;18.10;56.30
75738;DHT22;64356;45.638;13.764;2022-11-20T11:40:35;18.30;55.50
75738;DHT22;64356;45.638;13.764;2022-11-20T11:43:15;18.40;55.10
75738;DHT22;64356;45.638;13.764;2022-11-20T11:46:01;18.40;55.10
75738;DHT22;64356;45.638;13.764;2022-11-20T11:48:27;18.50;55.30
75738;DHT22;64356;45.638;13.764;2022-11-20T11:50:53;18.60;55.30
75738;DHT22;64356;45.638;13.764;2022-11-20T11:53:23;18.60;55.50
75738;DHT22;64356;45.638;13.764;2022-11-20T11:55:58;18.70;55.30
75738;DHT22;64356;45.638;13.764;2022-11-20T11:58:39;18.80;54.80
75738;DHT22;64356;45.638;13.764;2022-11-20T12:01:35;18.80;54.90
75738;DHT22;64356;45.638;13.764;2022-11-20T12:06:53;18.90;56.00
75738;DHT22;64356;45.638;13.764;2022-11-20T12:09:26;19.00;56.80
75738;DHT22;64356;45.638;13.764;2022-11-20T12:12:10;19.00;57.70
75738;DHT22;64356;45.638;13.764;2022-11-20T12:14:42;19.00;57.90
75738;DHT22;64356;45.638;13.764;2022-11-20T12:17:12;19.10;57.80
75738;DHT22;64356;45.638;13.764;2022-11-20T12:19:38;19.10;58.00
75738;DHT22;64356;45.638;13.764;2022-11-20T12:22:17;19.10;57.60
75738;DHT22;64356;45.638;13.764;2022-11-20T12:27:57;19.20;58.10
75738;DHT22;64356;45.638;13.764;2022-11-20T12:30:27;19.20;57.90
75738;DHT22;64356;45.638;13.764;2022-11-20T12:35:56;19.30;59.60
75738;DHT22;64356;45.638;13.764;2022-11-20T12:44:01;19.50;59.90
75738;DHT22;64356;45.638;13.764;2022-11-20T12:47:04;19.60;60.00
75738;DHT22;64356;45.638;13.764;2022-11-20T12:50:17;19.60;60.20
75738;DHT22;64356;45.638;13.764;2022-11-20T12:52:45;19.70;60.20
75738;DHT22;64356;45.638;13.764;2022-11-20T12:55:16;19.80;60.10
75738;DHT22;64356;45.638;13.764;2022-11-20T12:58:05;19.80;59.90
75738;DHT22;64356;45.638;13.764;2022-11-20T13:00:37;19.80;59.60
75738;DHT22;64356;45.638;13.764;2022-11-20T13:03:25;19.90;59.80
75738;DHT22;64356;45.638;13.764;2022-11-20T13:06:17;19.90;59.70
75738;DHT22;64356;45.638;13.764;2022-11-20T13:09:04;19.90;59.60
75738;DHT22;64356;45.638;13.764;2022-11-20T13:11:44;20.00;59.60
75738;DHT22;64356;45.638;13.764;2022-11-20T13:14:36;20.00;59.50
75738;DHT22;64356;45.638;13.764;2022-11-20T13:19:36;20.10;59.00
75738;DHT22;64356;45.638;13.764;2022-11-20T13:22:01;20.20;59.20
75738;DHT22;64356;45.638;13.764;2022-11-20T13:24:29;20.20;59.10
75738;DHT22;64356;45.638;13.764;2022-11-20T13:29:34;20.20;58.90
75738;DHT22;64356;45.638;13.764;2022-11-20T13:34:54;20.30;58.50
75738;DHT22;64356;45.638;13.764;2022-11-20T13:37:27;20.30;58.00
75738;DHT22;64356;45.638;13.764;2022-11-20T13:39:53;20.30;58.30
75738;DHT22;64356;45.638;13.764;2022-11-20T13:42:24;20.40;58.40
75738;DHT22;64356;45.638;13.764;2022-11-20T13:44:55;20.40;58.60
75738;DHT22;64356;45.638;13.764;2022-11-20T13:47:27;20.50;59.40
75738;DHT22;64356;45.638;13.764;2022-11-20T13:49:54;20.50;60.10
75738;DHT22;64356;45.638;13.764;2022-11-20T13:58:12;20.60;62.80
75738;DHT22;64356;45.638;13.764;2022-11-20T14:00:56;20.60;63.10
75738;DHT22;64356;45.638;13.764;2022-11-20T14:03:24;20.60;62.80
75738;DHT22;64356;45.638;13.764;2022-11-20T14:06:02;20.60;62.70
75738;DHT22;64356;45.638;13.764;2022-11-20T14:08:37;20.60;62.30
75738;DHT22;64356;45.638;13.764;2022-11-20T14:11:17;20.60;61.90
75738;DHT22;64356;45.638;13.764;2022-11-20T14:16:25;20.60;60.90
75738;DHT22;64356;45.638;13.764;2022-11-20T14:18:51;20.60;61.50
75738;DHT22;64356;45.638;13.764;2022-11-20T14:21:29;20.60;61.40
75738;DHT22;64356;45.638;13.764;2022-11-20T14:24:11;20.60;61.20
75738;DHT22;64356;45.638;13.764;2022-11-20T14:26:38;20.60;61.00
75738;DHT22;64356;45.638;13.764;2022-11-20T14:29:16;20.60;61.00
75738;DHT22;64356;45.638;13.764;2022-11-20T14:31:43;20.60;60.70
75738;DHT22;64356;45.638;13.764;2022-11-20T14:34:20;20.60;60.60
75738;DHT22;64356;45.638;13.764;2022-11-20T14:36:47;20.60;60.40
75738;DHT22;64356;45.638;13.764;2022-11-20T14:39:25;20.60;60.30
75738;DHT22;64356;45.638;13.764;2022-11-20T14:41:53;20.60;60.20
75738;DHT22;64356;45.638;13.764;2022-11-20T14:44:27;20.60;59.80
75738;DHT22;64356;45.638;13.764;2022-11-20T14:46:54;20.60;60.10
75738;DHT22;64356;45.638;13.764;2022-11-20T14:49:20;20.60;59.90
75738;DHT22;64356;45.638;13.764;2022-11-20T14:51:46;20.60;60.10
75738;DHT22;64356;45.638;13.764;2022-11-20T14:54:17;20.60;60.20
75738;DHT22;64356;45.638;13.764;2022-11-20T14:56:59;20.60;60.40
75738;DHT22;64356;45.638;13.764;2022-11-20T14:59:28;20.60;60.60
75738;DHT22;64356;45.638;13.764;2022-11-20T15:02:14;20.60;60.80
75738;DHT22;64356;45.638;13.764;2022-11-20T15:04:47;20.60;61.40
75738;DHT22;64356;45.638;13.764;2022-11-20T15:07:27;20.70;62.00
75738;DHT22;64356;45.638;13.764;2022-11-20T15:10:26;20.60;62.20
75738;DHT22;64356;45.638;13.764;2022-11-20T15:13:03;20.60;62.70
75738;DHT22;64356;45.638;13.764;2022-11-20T15:18:13;20.60;62.10
75738;DHT22;64356;45.638;13.764;2022-11-20T15:20:39;20.70;60.60
75738;DHT22;64356;45.638;13.764;2022-11-20T15:23:11;20.60;58.90
75738;DHT22;64356;45.638;13.764;2022-11-20T15:25:38;20.60;58.90
75738;DHT22;64356;45.638;13.764;2022-11-20T15:28:07;20.70;58.20
75738;DHT22;64356;45.638;13.764;2022-11-20T15:30:35;20.60;58.70
75738;DHT22;64356;45.638;13.764;2022-11-20T15:33:01;20.60;57.70
75738;DHT22;64356;45.638;13.764;2022-11-20T15:35:26;20.60;57.30
75738;DHT22;64356;45.638;13.764;2022-11-20T15:37:52;20.60;57.70
75738;DHT22;64356;45.638;13.764;2022-11-20T15:40:17;20.60;58.30
75738;DHT22;64356;45.638;13.764;2022-11-20T15:42:43;20.60;57.30
75738;DHT22;64356;45.638;13.764;2022-11-20T15:45:29;20.60;56.80
75738;DHT22;64356;45.638;13.764;2022-11-20T15:47:56;20.60;57.30
75738;DHT22;64356;45.638;13.764;2022-11-20T15:50:23;20.60;58.20
75738;DHT22;64356;45.638;13.764;2022-11-20T15:52:52;20.60;57.60
75738;DHT22;64356;45.638;13.764;2022-11-20T15:55:18;20.60;57.10
75738;DHT22;64356;45.638;13.764;2022-11-20T15:57:43;20.60;57.50
75738;DHT22;64356;45.638;13.764;2022-11-20T16:00:09;20.60;57.50
75738;DHT22;64356;45.638;13.764;2022-11-20T16:02:35;20.60;57.50
75738;DHT22;64356;45.638;13.764;2022-11-20T16:05:01;20.60;57.30
75738;DHT22;64356;45.638;13.764;2022-11-20T16:07:26;20.60;57.10
75738;DHT22;64356;45.638;13.764;2022-11-20T16:09:52;20.60;58.00
75738;DHT22;64356;45.638;13.764;2022-11-20T16:12:18;20.60;57.10
75738;DHT22;64356;45.638;13.764;2022-11-20T16:15:03;20.50;57.20
75738;DHT22;64356;45.638;13.764;2022-11-20T16:17:47;20.60;57.20
75738;DHT22;64356;45.638;13.764;2022-11-20T16:20:13;20.50;56.60
75738;DHT22;64356;45.638;13.764;2022-11-20T16:22:39;20.50;57.40
75738;DHT22;64356;45.638;13.764;2022-11-20T16:25:05;20.50;57.60
75738;DHT22;64356;45.638;13.764;2022-11-20T16:27:30;20.50;58.00
75738;DHT22;64356;45.638;13.764;2022-11-20T16:29:56;20.50;57.40
75738;DHT22;64356;45.638;13.764;2022-11-20T16:32:21;20.50;57.20
75738;DHT22;64356;45.638;13.764;2022-11-20T16:34:47;20.50;57.70
75738;DHT22;64356;45.638;13.764;2022-11-20T16:37:13;20.50;58.20
75738;DHT22;64356;45.638;13.764;2022-11-20T16:39:38;20.40;57.60
75738;DHT22;64356;45.638;13.764;2022-11-20T16:42:04;20.40;58.60